createdAt,value
2023-04-04T00:00:50.518Z,2.50
2023-04-04T00:03:18.008Z,2.13
2023-04-04T00:05:46.025Z,2.87
2023-04-04T00:08:14.918Z,2.50
2023-04-04T00:10:42.589Z,2.27
2023-04-04T00:13:10.501Z,2.40
2023-04-04T00:15:38.041Z,2.43
2023-04-04T00:18:05.556Z,2.47
2023-04-04T00:20:32.983Z,2.20
2023-04-04T00:23:00.600Z,2.43
2023-04-04T00:25:29.410Z,2.20
2023-04-04T00:28:00.612Z,2.10
2023-04-04T00:30:28.860Z,2.10
2023-04-04T00:32:57.288Z,2.00
2023-04-04T00:35:24.897Z,2.23
2023-04-04T00:37:52.394Z,1.90
2023-04-04T00:40:19.805Z,2.00
2023-04-04T00:42:48.602Z,1.90
2023-04-04T00:45:16.331Z,2.30
2023-04-04T00:47:44.537Z,2.00
2023-04-04T00:50:12.201Z,2.07
2023-04-04T00:52:39.708Z,1.87
2023-04-04T00:55:07.746Z,2.07
2023-04-04T00:57:35.639Z,2.10
2023-04-04T01:00:06.488Z,1.90
2023-04-04T01:02:34.267Z,2.07
2023-04-04T01:05:01.780Z,2.20
2023-04-04T01:07:29.568Z,1.97
2023-04-04T01:09:57.489Z,2.00
2023-04-04T01:12:25.609Z,1.90
2023-04-04T01:14:52.977Z,1.87
2023-04-04T01:17:21.795Z,1.90
2023-04-04T01:19:54.536Z,1.90
2023-04-04T01:22:22.870Z,2.10
2023-04-04T01:24:50.719Z,1.93
2023-04-04T01:27:19.544Z,2.00
2023-04-04T01:29:47.193Z,2.03
2023-04-04T01:32:17.124Z,1.90
2023-04-04T01:34:48.210Z,2.10
2023-04-04T01:37:19.604Z,2.20
2023-04-04T01:39:49.420Z,2.30
2023-04-04T01:42:17.273Z,2.20
2023-04-04T01:44:46.511Z,2.00
2023-04-04T01:47:14.052Z,1.90
2023-04-04T01:49:42.227Z,1.80
2023-04-04T01:52:09.948Z,2.10
2023-04-04T01:54:37.677Z,1.97
2023-04-04T01:57:05.346Z,2.03
2023-04-04T01:59:32.974Z,1.90
2023-04-04T02:02:02.015Z,2.03
2023-04-04T02:04:30.497Z,2.00
2023-04-04T02:06:59.210Z,1.87
2023-04-04T02:09:26.675Z,2.30
2023-04-04T02:11:55.176Z,2.20
2023-04-04T02:14:22.749Z,2.10
2023-04-04T02:16:50.697Z,2.03
2023-04-04T02:19:20.031Z,2.10
2023-04-04T02:21:47.713Z,1.97
2023-04-04T02:24:15.311Z,2.00
2023-04-04T02:26:42.780Z,2.00
2023-04-04T02:29:12.674Z,1.70
2023-04-04T02:31:40.329Z,2.10
2023-04-04T02:34:07.881Z,2.20
2023-04-04T02:36:36.727Z,1.80
2023-04-04T02:39:04.815Z,1.80
2023-04-04T02:41:32.269Z,2.00
2023-04-04T02:43:59.711Z,2.17
2023-04-04T02:46:27.263Z,2.30
2023-04-04T02:48:54.799Z,2.03
2023-04-04T02:51:22.358Z,2.10
2023-04-04T02:53:51.213Z,2.10
2023-04-04T02:56:18.717Z,1.90
2023-04-04T02:58:46.691Z,2.30
2023-04-04T03:01:14.189Z,2.00
2023-04-04T03:03:42.086Z,2.00
2023-04-04T03:06:09.630Z,1.90
2023-04-04T03:08:37.076Z,2.33
2023-04-04T03:11:06.115Z,2.00
2023-04-04T03:13:33.578Z,2.10
2023-04-04T03:16:02.730Z,1.90
2023-04-04T03:18:30.339Z,2.10
2023-04-04T03:20:57.768Z,2.40
2023-04-04T03:23:25.251Z,2.10
2023-04-04T03:25:52.716Z,2.20
2023-04-04T03:28:21.677Z,1.83
2023-04-04T03:30:49.088Z,2.10
2023-04-04T03:33:16.795Z,1.80
2023-04-04T03:35:44.292Z,2.07
2023-04-04T03:38:12.088Z,2.13
2023-04-04T03:40:39.809Z,2.00
2023-04-04T03:43:07.796Z,1.87
2023-04-04T03:45:36.826Z,2.20
2023-04-04T03:48:04.328Z,2.17
2023-04-04T03:50:31.827Z,2.23
2023-04-04T03:52:59.686Z,2.13
2023-04-04T03:55:27.293Z,2.27
2023-04-04T03:57:54.780Z,1.97
2023-04-04T04:00:22.212Z,2.30
2023-04-04T04:02:51.105Z,2.00
2023-04-04T04:05:18.592Z,2.30
2023-04-04T04:07:47.074Z,2.63
2023-04-04T04:10:15.102Z,2.00
2023-04-04T04:12:42.564Z,1.80
2023-04-04T04:15:10.522Z,2.10
2023-04-04T04:17:39.727Z,2.13
2023-04-04T04:20:10.003Z,2.03
2023-04-04T04:22:38.011Z,2.00
2023-04-04T04:25:05.893Z,1.83
2023-04-04T04:27:33.717Z,2.00
2023-04-04T04:30:01.160Z,1.90
2023-04-04T04:32:28.684Z,1.90
2023-04-04T04:34:56.219Z,1.70
2023-04-04T04:37:26.066Z,2.10
2023-04-04T04:39:53.551Z,2.10
2023-04-04T04:42:21.278Z,2.10
2023-04-04T04:44:48.769Z,2.50
2023-04-04T04:47:16.247Z,1.90
2023-04-04T04:49:46.513Z,2.27
2023-04-04T04:52:13.896Z,2.23
2023-04-04T04:54:43.570Z,2.10
2023-04-04T04:57:11.147Z,2.20
2023-04-04T04:59:38.881Z,2.07
2023-04-04T05:02:06.339Z,2.10
2023-04-04T05:04:33.892Z,2.30
2023-04-04T05:07:01.309Z,2.10
2023-04-04T05:09:28.778Z,2.10
2023-04-04T05:11:57.878Z,3.17
2023-04-04T05:14:25.442Z,4.20
2023-04-04T05:16:53.121Z,3.20
2023-04-04T05:19:20.748Z,3.40
2023-04-04T05:21:48.322Z,2.53
2023-04-04T05:24:17.193Z,2.00
2023-04-04T05:26:44.711Z,2.27
2023-04-04T05:29:13.547Z,1.97
2023-04-04T05:31:40.938Z,2.20
2023-04-04T05:34:08.960Z,2.93
2023-04-04T05:36:36.730Z,2.90
2023-04-04T05:39:05.186Z,2.80
2023-04-04T05:41:32.778Z,2.43
2023-04-04T05:44:00.542Z,2.50
2023-04-04T05:46:29.806Z,2.27
2023-04-04T05:48:57.379Z,2.27
2023-04-04T05:51:24.752Z,2.30
2023-04-04T05:53:52.197Z,2.93
2023-04-04T05:56:19.584Z,2.57
2023-04-04T05:58:47.317Z,2.60
2023-04-04T06:01:14.917Z,2.80
2023-04-04T06:03:44.014Z,5.20
2023-04-04T06:06:11.705Z,3.13
2023-04-04T06:08:50.591Z,3.57
2023-04-04T06:11:21.827Z,5.00
2023-04-04T06:13:49.374Z,3.10
2023-04-04T06:16:16.988Z,2.67
2023-04-04T06:18:45.929Z,2.80
2023-04-04T06:21:13.778Z,2.50
2023-04-04T06:23:41.373Z,2.60
2023-04-04T06:26:09.314Z,2.80
2023-04-04T06:28:36.739Z,2.77
2023-04-04T06:31:06.378Z,2.33
2023-04-04T06:33:35.417Z,2.40
2023-04-04T06:36:04.371Z,2.40
2023-04-04T06:38:31.851Z,2.20
2023-04-04T06:40:59.533Z,2.10
2023-04-04T06:43:28.884Z,2.30
2023-04-04T06:45:58.074Z,2.20
2023-04-04T06:48:25.698Z,1.83
2023-04-04T06:50:53.477Z,2.53
2023-04-04T06:53:23.699Z,2.00
2023-04-04T06:55:51.696Z,3.10
2023-04-04T06:58:19.183Z,5.20
2023-04-04T07:00:47.050Z,4.20
2023-04-04T07:03:14.602Z,7.00
2023-04-04T07:05:42.643Z,4.30
2023-04-04T07:08:10.140Z,3.00
2023-04-04T07:10:40.018Z,2.43
2023-04-04T07:13:08.723Z,2.60
2023-04-04T07:15:36.282Z,2.10
2023-04-04T07:18:03.828Z,2.10
2023-04-04T07:20:32.158Z,2.40
2023-04-04T07:22:59.682Z,2.30
2023-04-04T07:25:27.115Z,2.10
2023-04-04T07:28:09.485Z,2.30
2023-04-04T07:30:40.349Z,2.40
2023-04-04T07:33:08.205Z,2.33
2023-04-04T07:35:35.919Z,1.97
2023-04-04T07:38:04.354Z,2.20
2023-04-04T07:40:31.801Z,2.20
2023-04-04T07:43:00.531Z,2.37
2023-04-04T07:45:28.140Z,2.30
2023-04-04T07:47:55.940Z,1.80
2023-04-04T07:50:23.414Z,2.07
2023-04-04T07:52:51.500Z,2.03
2023-04-04T07:55:19.590Z,2.13
2023-04-04T07:57:47.196Z,1.90
2023-04-04T08:00:17.592Z,2.10
2023-04-04T08:02:45.514Z,1.93
2023-04-04T08:05:13.087Z,2.30
2023-04-04T08:07:40.729Z,1.57
2023-04-04T08:10:09.146Z,2.00
2023-04-04T08:12:36.656Z,2.20
2023-04-04T08:15:04.473Z,2.33
2023-04-04T08:17:33.346Z,1.90
2023-04-04T08:20:00.940Z,2.07
2023-04-04T08:22:28.624Z,2.23
2023-04-04T08:24:56.721Z,2.10
2023-04-04T08:27:24.147Z,1.90
2023-04-04T08:29:52.431Z,1.73
2023-04-04T08:32:19.893Z,2.30
2023-04-04T08:34:48.893Z,2.90
2023-04-04T08:37:16.627Z,2.30
2023-04-04T08:39:44.272Z,2.53
2023-04-04T08:42:12.441Z,3.00
2023-04-04T08:44:40.749Z,2.90
2023-04-04T08:47:11.401Z,2.90
2023-04-04T08:49:39.405Z,2.67
2023-04-04T08:52:10.191Z,2.70
2023-04-04T08:54:39.633Z,2.80
2023-04-04T08:57:10.586Z,2.87
2023-04-04T08:59:38.273Z,3.10
2023-04-04T09:02:15.177Z,3.00
2023-04-04T09:04:51.376Z,3.10
2023-04-04T09:07:25.204Z,2.90
2023-04-04T09:09:53.169Z,3.00
2023-04-04T09:14:51.783Z,2.63
2023-04-04T09:17:19.490Z,3.17
2023-04-04T09:19:46.952Z,3.00
2023-04-04T09:22:17.700Z,2.90
2023-04-04T09:24:48.306Z,3.00
2023-04-04T09:27:16.830Z,3.23
2023-04-04T09:29:44.374Z,3.00
2023-04-04T09:32:14.915Z,3.10
2023-04-04T09:34:43.741Z,3.00
2023-04-04T09:37:14.170Z,3.00
2023-04-04T09:39:43.418Z,2.77
2023-04-04T09:42:12.351Z,2.90
2023-04-04T09:44:39.887Z,3.40
2023-04-04T09:47:30.363Z,2.50
2023-04-04T09:49:59.260Z,2.60
2023-04-04T09:52:26.857Z,3.43
2023-04-04T09:54:58.503Z,2.60
2023-04-04T09:57:29.282Z,2.90
2023-04-04T10:00:00.940Z,2.27
2023-04-04T10:02:28.763Z,2.70
2023-04-04T10:05:06.081Z,2.60
2023-04-04T10:07:34.658Z,2.77
2023-04-04T10:10:02.736Z,2.80
2023-04-04T10:12:31.569Z,2.60
2023-04-04T10:14:59.917Z,2.50
2023-04-04T10:17:31.044Z,3.00
2023-04-04T10:19:59.253Z,2.53
2023-04-04T10:22:27.161Z,2.67
2023-04-04T10:24:54.869Z,2.87
2023-04-04T10:27:22.728Z,2.87
2023-04-04T10:29:51.956Z,3.03
2023-04-04T10:32:24.130Z,2.80
2023-04-04T10:34:56.563Z,2.90
2023-04-04T10:37:27.112Z,2.30
2023-04-04T10:39:56.735Z,2.50
2023-04-04T10:42:25.904Z,2.50
2023-04-04T10:44:55.583Z,2.80
2023-04-04T10:47:23.821Z,2.63
2023-04-04T10:49:53.596Z,2.70
2023-04-04T10:52:22.818Z,2.67
2023-04-04T10:54:51.013Z,2.37
2023-04-04T10:57:18.722Z,2.73
2023-04-04T11:00:02.444Z,2.30
2023-04-04T11:02:46.968Z,2.70
2023-04-04T11:05:16.741Z,2.40
2023-04-04T11:07:57.124Z,2.50
2023-04-04T11:10:33.029Z,2.60
2023-04-04T11:13:12.635Z,2.97
2023-04-04T11:15:48.377Z,2.70
2023-04-04T11:18:30.587Z,2.40
2023-04-04T11:21:02.654Z,2.57
2023-04-04T11:23:39.741Z,2.27
2023-04-04T11:26:08.450Z,2.83
2023-04-04T11:28:46.300Z,2.70
2023-04-04T11:31:29.049Z,2.43
2023-04-04T11:33:57.741Z,2.70
2023-04-04T11:36:25.676Z,2.67
2023-04-04T11:38:53.656Z,3.00
2023-04-04T11:41:21.565Z,2.70
2023-04-04T11:43:51.272Z,2.60
2023-04-04T11:46:19.608Z,2.77
2023-04-04T11:48:48.627Z,2.23
2023-04-04T11:51:17.483Z,2.70
2023-04-04T11:53:44.907Z,2.70
2023-04-04T11:56:16.218Z,2.27
2023-04-04T11:58:49.483Z,2.60
2023-04-04T12:01:18.416Z,2.43
2023-04-04T12:03:46.006Z,2.40
2023-04-04T12:06:16.918Z,2.50
2023-04-04T12:08:45.121Z,2.37
2023-04-04T12:11:16.602Z,2.57
2023-04-04T12:13:44.688Z,2.77
2023-04-04T12:16:12.539Z,2.40
2023-04-04T12:18:39.951Z,2.20
2023-04-04T12:21:07.629Z,2.43
2023-04-04T12:23:37.327Z,2.50
2023-04-04T12:26:05.798Z,2.53
2023-04-04T12:28:35.138Z,2.67
2023-04-04T12:31:05.589Z,2.17
2023-04-04T12:33:33.764Z,2.40
2023-04-04T12:36:03.307Z,2.40
2023-04-04T12:38:31.447Z,2.40
2023-04-04T12:41:00.412Z,2.73
2023-04-04T12:43:28.640Z,2.80
2023-04-04T12:45:57.762Z,4.80
2023-04-04T12:48:28.129Z,2.70
2023-04-04T12:50:56.764Z,2.47
2023-04-04T12:55:55.405Z,2.70
2023-04-04T12:58:26.033Z,2.60
2023-04-04T13:00:54.354Z,3.00
2023-04-04T13:03:23.073Z,2.50
2023-04-04T13:05:50.493Z,2.17
2023-04-04T13:08:18.918Z,2.53
2023-04-04T13:11:06.616Z,2.50
2023-04-04T13:13:36.684Z,2.60
2023-04-04T13:16:05.102Z,2.80
2023-04-04T13:21:05.894Z,3.03
2023-04-04T13:23:33.518Z,2.93
2023-04-04T13:26:01.015Z,3.10
2023-04-04T13:28:28.422Z,2.93
2023-04-04T13:30:57.500Z,2.97
2023-04-04T13:33:24.953Z,2.63
2023-04-04T13:35:52.381Z,2.83
2023-04-04T13:38:19.813Z,3.13
2023-04-04T13:40:47.311Z,3.00
2023-04-04T13:43:15.550Z,3.00
2023-04-04T13:45:43.962Z,3.20
2023-04-04T13:48:13.137Z,2.93
2023-04-04T13:50:42.013Z,2.97
2023-04-04T13:53:10.382Z,2.50
2023-04-04T13:55:39.021Z,3.00
2023-04-04T13:58:07.604Z,2.80
2023-04-04T14:00:35.117Z,2.60
2023-04-04T14:03:03.622Z,2.93
2023-04-04T14:05:32.392Z,2.30
2023-04-04T14:07:59.842Z,2.80
2023-04-04T14:10:27.274Z,2.50
2023-04-04T14:12:54.642Z,2.37
2023-04-04T14:15:22.424Z,2.70
2023-04-04T14:17:50.278Z,2.67
2023-04-04T14:20:17.931Z,2.80
2023-04-04T14:22:46.854Z,2.60
2023-04-04T14:25:14.368Z,2.60
2023-04-04T14:27:41.828Z,2.30
2023-04-04T14:30:09.772Z,2.30
2023-04-04T14:32:37.160Z,2.73
2023-04-04T14:35:04.940Z,2.60
2023-04-04T14:37:32.388Z,2.80
2023-04-04T14:40:01.275Z,2.60
2023-04-04T14:42:28.947Z,2.63
2023-04-04T14:44:56.360Z,2.40
2023-04-04T14:47:23.745Z,2.63
2023-04-04T14:49:51.314Z,2.80
2023-04-04T14:52:18.781Z,2.60
2023-04-04T14:54:46.409Z,3.07
2023-04-04T14:57:16.021Z,3.10
2023-04-04T14:59:44.180Z,2.17
2023-04-04T15:02:11.749Z,2.80
2023-04-04T15:04:39.414Z,2.70
2023-04-04T15:07:06.847Z,2.80
2023-04-04T15:09:34.335Z,2.67
2023-04-04T15:12:01.878Z,2.37
2023-04-04T15:14:30.635Z,2.20
2023-04-04T15:16:58.453Z,2.07
2023-04-04T15:19:25.912Z,2.33
2023-04-04T15:21:53.431Z,2.77
2023-04-04T15:24:20.891Z,2.10
2023-04-04T15:26:48.911Z,2.43
2023-04-04T15:29:16.424Z,2.30
2023-04-04T15:31:45.330Z,2.47
2023-04-04T15:34:12.775Z,2.30
2023-04-04T15:36:40.350Z,2.13
2023-04-04T15:39:08.116Z,2.33
2023-04-04T15:41:35.552Z,2.73
2023-04-04T15:44:02.983Z,2.20
2023-04-04T15:46:31.317Z,2.17
2023-04-04T15:49:01.134Z,2.50
2023-04-04T15:51:29.089Z,2.47
2023-04-04T15:53:56.644Z,1.93
2023-04-04T15:56:24.064Z,2.30
2023-04-04T15:58:51.567Z,2.40
2023-04-04T16:01:19.061Z,2.10
2023-04-04T16:03:46.843Z,2.30
2023-04-04T16:06:15.705Z,3.13
2023-04-04T16:08:43.555Z,2.50
2023-04-04T16:11:11.100Z,2.23
2023-04-04T16:13:38.549Z,1.90
2023-04-04T16:16:06.164Z,2.30
2023-04-04T16:18:33.693Z,2.70
2023-04-04T16:21:03.256Z,2.17
2023-04-04T16:23:32.248Z,2.57
2023-04-04T16:25:59.710Z,2.30
2023-04-04T16:28:27.139Z,2.23
2023-04-04T16:30:54.636Z,3.03
2023-04-04T16:33:24.040Z,2.40
2023-04-04T16:35:51.542Z,2.33
2023-04-04T16:38:18.969Z,2.70
2023-04-04T16:40:47.797Z,2.40
2023-04-04T16:43:15.229Z,2.53
2023-04-04T16:45:42.602Z,2.67
2023-04-04T16:48:10.269Z,2.43
2023-04-04T16:50:37.888Z,2.60
2023-04-04T16:53:06.090Z,2.40
2023-04-04T16:55:33.500Z,2.70
2023-04-04T16:58:02.483Z,2.40
2023-04-04T17:00:30.182Z,2.47
2023-04-04T17:02:58.234Z,2.70
2023-04-04T17:05:25.868Z,2.93
2023-04-04T17:07:53.271Z,2.87
2023-04-04T17:10:20.855Z,3.23
2023-04-04T17:12:48.312Z,2.73
2023-04-04T17:15:17.887Z,2.90
2023-04-04T17:17:45.619Z,2.60
2023-04-04T17:20:17.667Z,2.50
2023-04-04T17:22:45.579Z,2.90
2023-04-04T17:25:13.068Z,2.50
2023-04-04T17:27:41.047Z,2.60
2023-04-04T17:30:09.335Z,3.00
2023-04-04T17:32:38.136Z,3.63
2023-04-04T17:35:06.789Z,3.03
2023-04-04T17:37:34.307Z,2.50
2023-04-04T17:40:03.903Z,3.33
2023-04-04T17:42:31.318Z,2.60
2023-04-04T17:44:58.903Z,2.37
2023-04-04T17:47:27.258Z,2.40
2023-04-04T17:49:57.252Z,2.70
2023-04-04T17:52:24.788Z,2.70
2023-04-04T17:54:52.806Z,3.10
2023-04-04T17:57:20.593Z,2.80
2023-04-04T17:59:48.386Z,2.10
2023-04-04T18:02:16.106Z,2.53
2023-04-04T18:04:43.661Z,2.73
2023-04-04T18:07:13.140Z,2.60
2023-04-04T18:09:40.695Z,2.60
2023-04-04T18:12:08.395Z,2.67
2023-04-04T18:14:35.947Z,2.30
2023-04-04T18:17:03.801Z,2.27
2023-04-04T18:19:31.931Z,2.50
2023-04-04T18:22:00.140Z,2.60
2023-04-04T18:24:29.202Z,3.10
2023-04-04T18:26:56.792Z,3.70
2023-04-04T18:29:25.798Z,3.20
2023-04-04T18:31:53.558Z,2.90
2023-04-04T18:34:21.131Z,2.87
2023-04-04T18:36:49.593Z,2.70
2023-04-04T18:39:18.500Z,3.00
2023-04-04T18:41:47.463Z,2.77
2023-04-04T18:44:15.419Z,2.90
2023-04-04T18:46:42.998Z,2.90
2023-04-04T18:49:10.487Z,2.53
2023-04-04T18:51:37.896Z,2.93
2023-04-04T18:54:05.732Z,2.70
2023-04-04T18:56:33.181Z,3.00
2023-04-04T18:59:02.018Z,3.40
2023-04-04T19:01:31.204Z,3.00
2023-04-04T19:03:58.684Z,2.80
2023-04-04T19:06:27.920Z,3.40
2023-04-04T19:08:56.651Z,3.43
2023-04-04T19:11:25.209Z,3.60
2023-04-04T19:13:52.710Z,3.20
2023-04-04T19:16:21.533Z,3.30
2023-04-04T19:18:49.100Z,3.30
2023-04-04T19:21:16.617Z,3.17
2023-04-04T19:23:44.100Z,2.90
2023-04-04T19:26:11.635Z,3.20
2023-04-04T19:28:39.224Z,2.87
2023-04-04T19:31:10.403Z,2.83
2023-04-04T19:33:39.687Z,3.10
2023-04-04T19:36:09.014Z,3.27
2023-04-04T19:38:36.975Z,3.20
2023-04-04T19:41:08.398Z,3.07
2023-04-04T19:43:35.792Z,3.10
2023-04-04T19:46:07.892Z,3.47
2023-04-04T19:48:41.817Z,2.80
2023-04-04T19:51:10.210Z,3.47
2023-04-04T19:53:38.092Z,3.40
2023-04-04T19:56:08.145Z,3.00
2023-04-04T19:58:36.225Z,3.50
2023-04-04T20:01:03.734Z,3.23
2023-04-04T20:03:33.575Z,3.60
2023-04-04T20:06:07.900Z,2.93
2023-04-04T20:08:36.646Z,3.53
2023-04-04T20:11:05.500Z,3.50
2023-04-04T20:13:34.563Z,3.70
2023-04-04T20:16:03.702Z,3.80
2023-04-04T20:18:32.525Z,3.60
2023-04-04T20:21:01.542Z,4.10
2023-04-04T20:23:32.136Z,3.70
2023-04-04T20:26:05.217Z,3.77
2023-04-04T20:28:32.725Z,3.40
2023-04-04T20:31:01.787Z,3.60
2023-04-04T20:33:30.985Z,3.60
2023-04-04T20:35:59.506Z,3.60
2023-04-04T20:38:27.040Z,3.80
2023-04-04T20:40:56.164Z,3.60
2023-04-04T20:43:23.963Z,3.83
2023-04-04T20:45:51.509Z,3.70
2023-04-04T20:48:36.678Z,3.13
2023-04-04T20:51:04.573Z,3.67
2023-04-04T20:53:32.766Z,3.57
2023-04-04T20:56:02.298Z,3.20
2023-04-04T20:58:30.518Z,3.57
2023-04-04T21:00:59.073Z,3.87
2023-04-04T21:03:37.392Z,3.80
2023-04-04T21:06:15.059Z,3.43
2023-04-04T21:08:43.200Z,3.83
2023-04-04T21:11:12.554Z,3.97
2023-04-04T21:13:40.794Z,3.60
2023-04-04T21:16:09.457Z,3.33
2023-04-04T21:18:37.395Z,4.07
2023-04-04T21:21:08.529Z,4.10
2023-04-04T21:23:42.137Z,3.57
2023-04-04T21:26:10.606Z,4.20
2023-04-04T21:28:39.971Z,3.93
2023-04-04T21:31:09.933Z,3.30
2023-04-04T21:33:38.045Z,3.90
2023-04-04T21:36:07.371Z,4.17
2023-04-04T21:38:35.940Z,3.60
2023-04-04T21:41:08.313Z,4.53
2023-04-04T21:43:36.323Z,3.90
2023-04-04T21:46:05.213Z,3.40
2023-04-04T21:48:32.925Z,3.77
2023-04-04T21:51:00.540Z,4.07
2023-04-04T21:53:28.039Z,3.90
2023-04-04T21:55:55.532Z,3.80
2023-04-04T21:58:23.081Z,3.57
2023-04-04T22:00:50.562Z,4.47
2023-04-04T22:03:19.471Z,3.47
2023-04-04T22:05:46.908Z,3.27
2023-04-04T22:08:14.470Z,4.10
2023-04-04T22:10:45.588Z,3.90
2023-04-04T22:13:14.796Z,3.33
2023-04-04T22:15:44.073Z,3.37
2023-04-04T22:18:14.865Z,3.77
2023-04-04T22:20:43.958Z,3.80
2023-04-04T22:23:12.309Z,3.40
2023-04-04T22:25:40.017Z,3.70
2023-04-04T22:28:08.629Z,3.67
2023-04-04T22:30:37.216Z,3.30
2023-04-04T22:33:05.384Z,3.40
2023-04-04T22:35:33.110Z,3.20
2023-04-04T22:38:03.512Z,3.30
2023-04-04T22:40:32.051Z,3.10
2023-04-04T22:42:59.916Z,3.53
2023-04-04T22:45:29.510Z,3.23
2023-04-04T22:47:57.971Z,3.13
2023-04-04T22:50:26.706Z,3.30
2023-04-04T22:52:54.713Z,3.20
2023-04-04T22:55:24.273Z,3.40
2023-04-04T22:57:51.826Z,3.30
2023-04-04T23:00:19.326Z,3.27
2023-04-04T23:02:47.719Z,3.40
2023-04-04T23:05:16.099Z,3.17
2023-04-04T23:07:43.898Z,2.80
2023-04-04T23:10:12.391Z,3.37
2023-04-04T23:12:41.260Z,3.10
2023-04-04T23:15:09.150Z,2.90
2023-04-04T23:17:38.732Z,3.03
2023-04-04T23:20:09.423Z,3.00
2023-04-04T23:22:37.456Z,3.10
2023-04-04T23:25:06.359Z,3.10
2023-04-04T23:27:34.176Z,3.10
2023-04-04T23:30:04.916Z,3.13
2023-04-04T23:32:32.509Z,3.27
2023-04-04T23:35:00.065Z,3.03
2023-04-04T23:37:27.456Z,2.93
2023-04-04T23:39:55.750Z,3.27
2023-04-04T23:42:23.251Z,3.07
2023-04-04T23:44:51.245Z,3.10
2023-04-04T23:47:20.244Z,2.87
2023-04-04T23:49:47.862Z,3.10
2023-04-04T23:52:15.347Z,3.63
2023-04-04T23:54:42.775Z,3.20
2023-04-04T23:57:10.193Z,3.10
2023-04-04T23:59:37.592Z,2.97
